Time;durP1;ratioP1;P1;durP2;ratioP2;P2;SDS_P1;SDS_P2;PMS_P1;PMS_P2;Temp;Humidity;BMP_temperature;BMP_pressure;BME280_temperature;BME280_humidity;BME280_pressure;Samples;Min_cycle;Max_cycle;Signal;HPM_P1;HPM_P2
2021/10/11 00:02:47;;;;;;;33.37;27.77;;;;;;;;;;6258826;28;20215;-51
2021/10/11 00:06:08;;;;;;;33.87;29.87;;;;;;;;;;6255142;28;20248;-51
2021/10/11 00:09:28;;;;;;;31.50;28.40;;;;;;;;;;6258586;28;20220;-54
2021/10/11 00:12:49;;;;;;;35.57;31.13;;;;;;;;;;6259253;28;20200;-49
2021/10/11 00:16:12;;;;;;;31.40;28.20;;;;;;;;;;6256468;28;20228;-53
2021/10/11 00:19:35;;;;;;;35.17;31.20;;;;;;;;;;6263194;28;20322;-53
2021/10/11 00:22:56;;;;;;;33.43;28.77;;;;;;;;;;6262861;28;20280;-55
2021/10/11 00:26:17;;;;;;;34.13;30.77;;;;;;;;;;6261967;28;20220;-50
2021/10/11 00:29:37;;;;;;;36.53;32.20;;;;;;;;;;6267907;28;20223;-51
2021/10/11 00:32:57;;;;;;;36.40;32.50;;;;;;;;;;6266358;28;20203;-54
2021/10/11 00:36:19;;;;;;;34.77;31.10;;;;;;;;;;6263891;28;20504;-52
2021/10/11 00:39:39;;;;;;;34.90;31.13;;;;;;;;;;6269987;28;20857;-52
2021/10/11 00:43:00;;;;;;;34.80;31.27;;;;;;;;;;6264218;28;20604;-53
2021/10/11 00:46:20;;;;;;;36.97;33.03;;;;;;;;;;6264163;28;20196;-51
2021/10/11 00:49:41;;;;;;;38.23;33.23;;;;;;;;;;6267834;28;20254;-49
2021/10/11 00:53:03;;;;;;;38.20;34.17;;;;;;;;;;6267987;28;20196;-55
2021/10/11 00:56:24;;;;;;;39.70;35.37;;;;;;;;;;6258408;28;20232;-50
2021/10/11 00:59:44;;;;;;;40.93;35.77;;;;;;;;;;6264775;28;20228;-54
2021/10/11 01:03:05;;;;;;;38.87;34.87;;;;;;;;;;6259369;28;20205;-51
2021/10/11 01:06:25;;;;;;;38.97;34.73;;;;;;;;;;6264492;28;20507;-51
2021/10/11 01:09:47;;;;;;;42.83;38.23;;;;;;;;;;6270252;28;20239;-52
2021/10/11 01:13:08;;;;;;;42.17;37.00;;;;;;;;;;6269220;28;20513;-53
2021/10/11 01:16:28;;;;;;;39.47;35.33;;;;;;;;;;6264560;28;20224;-50
2021/10/11 01:19:49;;;;;;;44.10;37.67;;;;;;;;;;6261851;28;20228;-53
2021/10/11 01:23:11;;;;;;;47.30;37.87;;;;;;;;;;6265715;28;20204;-52
2021/10/11 01:26:35;;;;;;;47.03;42.03;;;;;;;;;;6264894;28;20550;-53
2021/10/11 01:29:56;;;;;;;44.30;37.47;;;;;;;;;;6264848;28;20223;-52
2021/10/11 01:33:17;;;;;;;41.87;37.57;;;;;;;;;;6265658;28;20236;-51
2021/10/11 01:36:37;;;;;;;43.37;36.97;;;;;;;;;;6266497;28;20208;-52
2021/10/11 01:39:59;;;;;;;37.27;33.07;;;;;;;;;;6261868;28;20224;-51
2021/10/11 01:43:19;;;;;;;40.83;36.60;;;;;;;;;;6262292;28;20339;-53
2021/10/11 01:46:40;;;;;;;44.83;39.93;;;;;;;;;;6263538;28;20430;-51
2021/10/11 01:50:02;;;;;;;41.40;37.03;;;;;;;;;;6265278;28;20600;-49
2021/10/11 01:53:22;;;;;;;42.17;37.67;;;;;;;;;;6260460;28;20240;-52
2021/10/11 01:56:44;;;;;;;40.40;36.17;;;;;;;;;;6256470;28;20306;-50
2021/10/11 02:00:06;;;;;;;42.07;37.63;;;;;;;;;;6259576;28;20236;-50
2021/10/11 02:03:26;;;;;;;40.10;35.60;;;;;;;;;;6265036;28;20319;-52
2021/10/11 02:06:46;;;;;;;41.37;36.60;;;;;;;;;;6260473;28;20193;-49
2021/10/11 02:10:08;;;;;;;41.17;36.53;;;;;;;;;;6260300;28;20258;-51
2021/10/11 02:13:30;;;;;;;47.30;42.27;;;;;;;;;;6265831;28;20232;-54
2021/10/11 02:16:51;;;;;;;42.77;38.47;;;;;;;;;;6258952;28;20635;-53
2021/10/11 02:20:11;;;;;;;44.50;38.03;;;;;;;;;;6256239;28;20220;-51
2021/10/11 02:23:32;;;;;;;43.17;37.73;;;;;;;;;;6260714;28;20307;-53
2021/10/11 02:26:52;;;;;;;44.83;40.00;;;;;;;;;;6258280;28;20192;-52
2021/10/11 02:30:14;;;;;;;41.10;36.67;;;;;;;;;;6257839;28;20334;-52
2021/10/11 02:33:35;;;;;;;44.33;39.47;;;;;;;;;;6259697;28;20319;-52
2021/10/11 02:36:56;;;;;;;48.50;42.10;;;;;;;;;;6262798;28;20225;-49
2021/10/11 02:40:17;;;;;;;43.70;38.07;;;;;;;;;;6261540;28;20236;-49
2021/10/11 02:43:37;;;;;;;43.23;38.43;;;;;;;;;;6264158;28;20243;-53
2021/10/11 02:47:01;;;;;;;41.63;37.23;;;;;;;;;;6263882;28;20200;-52
2021/10/11 02:50:22;;;;;;;41.60;36.13;;;;;;;;;;6262684;28;20342;-54
2021/10/11 02:53:42;;;;;;;44.03;39.17;;;;;;;;;;6265739;28;20481;-52
2021/10/11 02:57:03;;;;;;;41.77;36.03;;;;;;;;;;6257766;28;20215;-53
2021/10/11 03:00:23;;;;;;;39.27;35.13;;;;;;;;;;6257494;28;20236;-52
2021/10/11 03:03:45;;;;;;;42.53;36.93;;;;;;;;;;6258426;28;20231;-54
2021/10/11 03:07:06;;;;;;;44.23;39.43;;;;;;;;;;6257774;28;20755;-53
2021/10/11 03:10:27;;;;;;;43.00;38.40;;;;;;;;;;6257985;28;20331;-51
2021/10/11 03:13:47;;;;;;;40.97;36.63;;;;;;;;;;6257446;28;20220;-53
2021/10/11 03:17:07;;;;;;;44.90;40.07;;;;;;;;;;6257630;28;20220;-52
2021/10/11 03:20:29;;;;;;;48.77;43.47;;;;;;;;;;6260403;28;20314;-51
2021/10/11 03:23:50;;;;;;;44.10;38.97;;;;;;;;;;6262869;28;20224;-52
2021/10/11 03:27:11;;;;;;;43.07;37.13;;;;;;;;;;6258627;28;20211;-52
2021/10/11 03:30:32;;;;;;;45.53;40.37;;;;;;;;;;6253641;28;20605;-50
2021/10/11 03:33:53;;;;;;;45.63;40.23;;;;;;;;;;6261908;28;20235;-52
2021/10/11 03:37:14;;;;;;;40.97;36.50;;;;;;;;;;6258353;28;20207;-51
2021/10/11 03:40:35;;;;;;;47.93;42.73;;;;;;;;;;6260776;28;20224;-52
2021/10/11 03:43:56;;;;;;;42.67;36.97;;;;;;;;;;6263399;28;20220;-51
2021/10/11 03:47:16;;;;;;;39.90;35.60;;;;;;;;;;6262963;28;20204;-53
2021/10/11 03:50:37;;;;;;;39.33;34.03;;;;;;;;;;6260405;28;20236;-50
2021/10/11 03:53:59;;;;;;;37.57;33.37;;;;;;;;;;6259471;28;20306;-49
2021/10/11 03:57:19;;;;;;;43.00;35.93;;;;;;;;;;6271892;28;20208;-52
2021/10/11 04:00:40;;;;;;;42.57;36.77;;;;;;;;;;6276475;28;20629;-53
2021/10/11 04:04:01;;;;;;;38.13;34.17;;;;;;;;;;6264672;28;20590;-52
2021/10/11 04:07:21;;;;;;;41.97;37.47;;;;;;;;;;6265574;28;20204;-52
2021/10/11 04:10:53;;;;;;;38.77;34.57;;;;;;;;;;6256350;28;20644;-51
2021/10/11 04:14:14;;;;;;;44.80;39.83;;;;;;;;;;6269746;28;20802;-53
2021/10/11 04:17:37;;;;;;;41.57;37.07;;;;;;;;;;6272891;28;20242;-52
2021/10/11 04:20:58;;;;;;;39.17;34.67;;;;;;;;;;6263839;28;20505;-48
2021/10/11 04:24:18;;;;;;;37.67;31.90;;;;;;;;;;6267698;28;20315;-53
2021/10/11 04:27:40;;;;;;;42.30;32.03;;;;;;;;;;6264172;28;20200;-55
2021/10/11 04:31:00;;;;;;;37.27;33.27;;;;;;;;;;6263624;28;20220;-50
2021/10/11 04:34:21;;;;;;;36.23;32.37;;;;;;;;;;6261797;28;20251;-54
2021/10/11 04:37:42;;;;;;;37.63;31.63;;;;;;;;;;6262375;28;20191;-54
2021/10/11 04:41:02;;;;;;;32.47;28.97;;;;;;;;;;6264572;28;20258;-50
2021/10/11 04:44:24;;;;;;;36.00;32.10;;;;;;;;;;6269518;28;20294;-49
2021/10/11 04:47:45;;;;;;;35.10;29.87;;;;;;;;;;6259270;28;20192;-50
2021/10/11 04:51:05;;;;;;;36.50;32.00;;;;;;;;;;6263208;28;20212;-55
2021/10/11 04:54:26;;;;;;;34.87;29.17;;;;;;;;;;6266672;28;20310;-53
2021/10/11 04:57:46;;;;;;;34.63;29.00;;;;;;;;;;6265031;28;20212;-52
2021/10/11 05:01:08;;;;;;;31.27;26.50;;;;;;;;;;6259507;28;20192;-52
2021/10/11 05:04:28;;;;;;;32.57;28.80;;;;;;;;;;6263377;28;20231;-54
2021/10/11 05:07:49;;;;;;;35.73;29.97;;;;;;;;;;6264038;28;20200;-54
2021/10/11 05:11:10;;;;;;;36.37;27.57;;;;;;;;;;6257275;28;20321;-54
2021/10/11 05:14:30;;;;;;;29.70;24.77;;;;;;;;;;6265014;28;20223;-47
2021/10/11 05:17:52;;;;;;;29.27;24.73;;;;;;;;;;6263139;28;20227;-47
2021/10/11 05:21:13;;;;;;;51.57;46.17;;;;;;;;;;6259523;28;20748;-54
2021/10/11 05:24:33;;;;;;;32.53;26.80;;;;;;;;;;6259598;28;20284;-54
2021/10/11 05:27:53;;;;;;;26.57;23.50;;;;;;;;;;6262960;28;20200;-49
2021/10/11 05:31:14;;;;;;;29.23;22.37;;;;;;;;;;6259686;28;20248;-48
2021/10/11 05:34:36;;;;;;;29.30;23.23;;;;;;;;;;6270360;28;20624;-53
2021/10/11 05:37:56;;;;;;;29.87;23.87;;;;;;;;;;6257091;28;20212;-54
2021/10/11 05:41:17;;;;;;;41.50;36.97;;;;;;;;;;6257339;28;20201;-49
2021/10/11 05:44:38;;;;;;;52.47;44.57;;;;;;;;;;6262930;28;20323;-52
2021/10/11 05:47:58;;;;;;;31.27;26.33;;;;;;;;;;6261019;28;20208;-54
2021/10/11 05:51:20;;;;;;;29.37;24.80;;;;;;;;;;6257673;28;20204;-55
2021/10/11 05:54:41;;;;;;;27.67;22.60;;;;;;;;;;6263593;28;20254;-54
2021/10/11 05:58:01;;;;;;;31.73;26.37;;;;;;;;;;6255748;28;20500;-55
2021/10/11 06:01:22;;;;;;;48.73;41.70;;;;;;;;;;6264262;28;20196;-55
2021/10/11 06:04:43;;;;;;;33.03;25.87;;;;;;;;;;6247791;28;20347;-53
2021/10/11 06:08:05;;;;;;;26.60;22.20;;;;;;;;;;6255216;28;20652;-53
2021/10/11 06:11:25;;;;;;;31.73;25.83;;;;;;;;;;6257532;28;20204;-52
2021/10/11 06:14:46;;;;;;;24.27;21.67;;;;;;;;;;6259633;28;20569;-52
2021/10/11 06:18:07;;;;;;;34.27;26.47;;;;;;;;;;6252363;28;20204;-53
2021/10/11 06:21:27;;;;;;;33.60;29.07;;;;;;;;;;6264489;28;20185;-51
2021/10/11 06:24:49;;;;;;;43.87;30.47;;;;;;;;;;6258019;28;20231;-53
2021/10/11 06:28:11;;;;;;;38.00;31.30;;;;;;;;;;6257227;28;20196;-51
2021/10/11 06:31:32;;;;;;;37.93;30.77;;;;;;;;;;6258682;28;20568;-53
2021/10/11 06:34:52;;;;;;;36.50;29.10;;;;;;;;;;6260299;28;20318;-50
2021/10/11 06:38:13;;;;;;;38.43;29.70;;;;;;;;;;6261459;28;20192;-52
2021/10/11 06:41:34;;;;;;;36.93;29.10;;;;;;;;;;6255055;28;20538;-46
2021/10/11 06:44:56;;;;;;;33.03;27.07;;;;;;;;;;6260925;28;20243;-53
2021/10/11 06:48:18;;;;;;;28.77;25.33;;;;;;;;;;6256299;28;20243;-51
2021/10/11 06:51:38;;;;;;;29.23;25.90;;;;;;;;;;6260839;28;20256;-50
2021/10/11 06:54:59;;;;;;;28.73;24.23;;;;;;;;;;6253817;28;20233;-51
2021/10/11 06:58:21;;;;;;;34.77;27.43;;;;;;;;;;6260054;28;20235;-46
2021/10/11 07:01:43;;;;;;;28.80;24.17;;;;;;;;;;6258764;28;20562;-49
2021/10/11 07:05:08;;;;;;;30.27;23.53;;;;;;;;;;6258249;28;20228;-47
2021/10/11 07:08:29;;;;;;;26.73;22.50;;;;;;;;;;6262215;28;20224;-50
2021/10/11 07:11:50;;;;;;;26.53;23.73;;;;;;;;;;6259196;28;20511;-50
2021/10/11 07:15:12;;;;;;;25.77;22.00;;;;;;;;;;6256306;28;22136;-52
2021/10/11 07:18:34;;;;;;;26.80;21.67;;;;;;;;;;6258485;28;20220;-48
2021/10/11 07:21:54;;;;;;;23.13;20.73;;;;;;;;;;6267057;28;20283;-49
2021/10/11 07:25:15;;;;;;;28.07;22.60;;;;;;;;;;6258096;28;20220;-47
2021/10/11 07:28:36;;;;;;;25.67;20.20;;;;;;;;;;6264135;28;20604;-50
2021/10/11 07:31:58;;;;;;;26.53;20.13;;;;;;;;;;6265766;28;20224;-49
2021/10/11 07:35:19;;;;;;;23.93;20.47;;;;;;;;;;6260832;28;20330;-51
2021/10/11 07:38:39;;;;;;;19.23;17.23;;;;;;;;;;6268300;28;20624;-47
2021/10/11 07:42:00;;;;;;;21.90;17.13;;;;;;;;;;6263061;28;20196;-49
2021/10/11 07:45:21;;;;;;;22.17;16.37;;;;;;;;;;6260965;28;20318;-51
2021/10/11 07:48:42;;;;;;;20.17;17.23;;;;;;;;;;6262708;28;20223;-49
2021/10/11 07:52:03;;;;;;;23.07;14.70;;;;;;;;;;6265532;28;20211;-51
2021/10/11 07:55:24;;;;;;;19.87;14.50;;;;;;;;;;6270788;28;20232;-52
2021/10/11 07:58:44;;;;;;;18.67;13.57;;;;;;;;;;6267456;28;20236;-50
2021/10/11 08:02:04;;;;;;;16.70;10.90;;;;;;;;;;6268211;28;20192;-52
2021/10/11 08:05:27;;;;;;;14.03;10.10;;;;;;;;;;6272418;28;20589;-52
2021/10/11 08:08:47;;;;;;;11.37;9.33;;;;;;;;;;6270201;28;20228;-48
2021/10/11 08:12:08;;;;;;;14.27;8.43;;;;;;;;;;6265086;28;20236;-53
2021/10/11 08:15:29;;;;;;;13.20;8.70;;;;;;;;;;6275973;28;20243;-50
2021/10/11 08:18:49;;;;;;;14.33;8.67;;;;;;;;;;6255214;28;20231;-49
2021/10/11 08:22:11;;;;;;;9.60;7.93;;;;;;;;;;6265361;28;20192;-51
2021/10/11 08:25:32;;;;;;;11.83;9.60;;;;;;;;;;6272852;28;20615;-48
2021/10/11 08:28:52;;;;;;;13.27;10.80;;;;;;;;;;6268072;28;20231;-50
2021/10/11 08:32:13;;;;;;;12.50;10.63;;;;;;;;;;6266646;28;20204;-49
2021/10/11 08:35:33;;;;;;;16.03;10.03;;;;;;;;;;6265587;28;20237;-49
2021/10/11 08:38:55;;;;;;;13.80;9.03;;;;;;;;;;6273220;28;20255;-51
2021/10/11 08:42:16;;;;;;;14.87;9.37;;;;;;;;;;6263073;28;20239;-50
2021/10/11 08:45:37;;;;;;;10.83;7.97;;;;;;;;;;6267358;28;20633;-46
2021/10/11 08:48:59;;;;;;;12.10;7.10;;;;;;;;;;6271321;28;20224;-50
2021/10/11 08:52:21;;;;;;;12.30;7.67;;;;;;;;;;6264816;28;21159;-52
2021/10/11 08:55:43;;;;;;;10.30;6.83;;;;;;;;;;6269492;28;20228;-53
2021/10/11 08:59:04;;;;;;;7.80;5.40;;;;;;;;;;6272341;28;20581;-54
2021/10/11 09:02:26;;;;;;;9.47;6.60;;;;;;;;;;6266621;28;20180;-51
2021/10/11 09:05:52;;;;;;;10.33;6.73;;;;;;;;;;6270602;28;20235;-54
2021/10/11 09:09:13;;;;;;;10.17;5.33;;;;;;;;;;6261346;28;20216;-51
2021/10/11 09:12:35;;;;;;;9.80;5.60;;;;;;;;;;6269204;28;20216;-48
2021/10/11 09:16:03;;;;;;;8.07;6.00;;;;;;;;;;6265098;28;20235;-47
2021/10/11 09:19:31;;;;;;;11.10;5.27;;;;;;;;;;6259748;28;20227;-54
2021/10/11 09:22:52;;;;;;;7.93;5.73;;;;;;;;;;6264742;28;20208;-51
2021/10/11 09:26:17;;;;;;;9.07;5.73;;;;;;;;;;6265213;28;20212;-50
2021/10/11 09:29:40;;;;;;;10.33;4.27;;;;;;;;;;6271772;28;20324;-48
2021/10/11 09:33:10;;;;;;;7.90;4.63;;;;;;;;;;6264359;28;20517;-47
2021/10/11 09:36:31;;;;;;;6.30;3.87;;;;;;;;;;6276490;28;20493;-50
2021/10/11 09:39:59;;;;;;;11.00;4.07;;;;;;;;;;6263601;28;20232;-54
2021/10/11 09:43:21;;;;;;;7.93;3.33;;;;;;;;;;6260325;28;20239;-51
2021/10/11 09:46:46;;;;;;;9.65;4.32;;;;;;;;;;6263050;28;20223;-50
2021/10/11 09:50:09;;;;;;;12.70;3.33;;;;;;;;;;6267970;28;20228;-53
2021/10/11 09:53:30;;;;;;;6.63;2.92;;;;;;;;;;6268486;28;20220;-48
2021/10/11 09:56:51;;;;;;;7.38;2.22;;;;;;;;;;6265817;28;20204;-55
2021/10/11 10:00:12;;;;;;;5.57;2.55;;;;;;;;;;6270922;28;20227;-52
2021/10/11 10:03:36;;;;;;;5.72;1.92;;;;;;;;;;6269219;28;20232;-49
2021/10/11 10:07:00;;;;;;;3.50;1.73;;;;;;;;;;6263292;28;20588;-51
2021/10/11 10:10:22;;;;;;;4.80;1.63;;;;;;;;;;6268117;28;20232;-48
2021/10/11 10:13:47;;;;;;;5.57;1.40;;;;;;;;;;6253956;28;20616;-51
2021/10/11 10:17:08;;;;;;;5.53;1.98;;;;;;;;;;6256409;28;20208;-53
2021/10/11 10:20:30;;;;;;;4.78;2.33;;;;;;;;;;6261225;28;20225;-51
2021/10/11 10:23:55;;;;;;;5.45;2.28;;;;;;;;;;6261515;28;20605;-48
2021/10/11 10:27:15;;;;;;;4.47;2.75;;;;;;;;;;6267037;28;20286;-50
2021/10/11 10:30:35;;;;;;;6.32;2.45;;;;;;;;;;6264778;28;20228;-50
2021/10/11 10:33:56;;;;;;;6.65;2.30;;;;;;;;;;6258219;28;20235;-49
2021/10/11 10:37:18;;;;;;;5.63;2.28;;;;;;;;;;6259087;28;20223;-51
2021/10/11 10:40:39;;;;;;;6.72;2.75;;;;;;;;;;6259219;28;20220;-52
2021/10/11 10:44:09;;;;;;;3.95;2.20;;;;;;;;;;6260588;28;20262;-51
2021/10/11 10:47:31;;;;;;;11.75;3.15;;;;;;;;;;6256277;28;20208;-51
2021/10/11 10:50:52;;;;;;;6.28;1.73;;;;;;;;;;6262349;28;20228;-51
2021/10/11 10:54:17;;;;;;;6.00;1.95;;;;;;;;;;6257009;28;20269;-52
2021/10/11 10:57:37;;;;;;;7.30;2.47;;;;;;;;;;6258007;28;20231;-45
2021/10/11 11:01:00;;;;;;;9.80;2.97;;;;;;;;;;6259308;28;20208;-47
2021/10/11 11:04:23;;;;;;;4.20;2.23;;;;;;;;;;6261969;28;20274;-50
2021/10/11 11:07:44;;;;;;;7.13;2.17;;;;;;;;;;6264661;28;20207;-47
2021/10/11 11:11:06;;;;;;;6.75;2.15;;;;;;;;;;6244037;28;20228;-51
2021/10/11 11:14:26;;;;;;;5.63;2.28;;;;;;;;;;6244258;28;20681;-51
2021/10/11 11:17:47;;;;;;;5.40;1.60;;;;;;;;;;6244866;28;20640;-50
2021/10/11 11:21:08;;;;;;;7.45;2.47;;;;;;;;;;6242763;28;20312;-48
2021/10/11 11:24:28;;;;;;;7.40;2.55;;;;;;;;;;6242977;28;20228;-53
2021/10/11 11:27:54;;;;;;;7.57;2.88;;;;;;;;;;6244913;28;20260;-50
2021/10/11 11:31:16;;;;;;;7.37;2.57;;;;;;;;;;6243155;28;20220;-49
2021/10/11 11:34:38;;;;;;;8.32;2.28;;;;;;;;;;6246198;28;20428;-52
2021/10/11 11:37:59;;;;;;;3.22;1.63;;;;;;;;;;6243582;28;20204;-48
2021/10/11 11:41:20;;;;;;;6.50;1.90;;;;;;;;;;6249563;28;20227;-51
2021/10/11 11:44:42;;;;;;;4.85;1.77;;;;;;;;;;6263993;28;20306;-49
2021/10/11 11:48:04;;;;;;;6.38;1.85;;;;;;;;;;6261325;28;20187;-47
2021/10/11 11:51:24;;;;;;;2.40;1.08;;;;;;;;;;6262427;28;20228;-51
2021/10/11 11:54:53;;;;;;;6.32;1.88;;;;;;;;;;6265955;28;20632;-48
2021/10/11 11:58:14;;;;;;;3.10;1.05;;;;;;;;;;6265443;28;20199;-47
2021/10/11 12:01:36;;;;;;;4.72;1.55;;;;;;;;;;6258204;28;20743;-53
2021/10/11 12:04:56;;;;;;;6.45;1.80;;;;;;;;;;6261535;28;20231;-48
2021/10/11 12:08:17;;;;;;;2.33;1.13;;;;;;;;;;6264665;28;20769;-51
2021/10/11 12:11:39;;;;;;;4.97;1.58;;;;;;;;;;6261694;28;20302;-53
2021/10/11 12:15:00;;;;;;;3.80;1.30;;;;;;;;;;6257222;28;20228;-49
2021/10/11 12:18:22;;;;;;;3.85;1.10;;;;;;;;;;6262730;28;20240;-52
2021/10/11 12:21:43;;;;;;;3.42;1.38;;;;;;;;;;6267651;28;20205;-49
2021/10/11 12:25:05;;;;;;;2.55;1.60;;;;;;;;;;6265638;28;20220;-48
2021/10/11 12:28:25;;;;;;;6.03;1.65;;;;;;;;;;6264350;28;20223;-48
2021/10/11 12:31:54;;;;;;;5.57;1.88;;;;;;;;;;6263861;28;20220;-53
2021/10/11 12:35:23;;;;;;;1.95;0.68;;;;;;;;;;6269723;28;20231;-50
2021/10/11 12:38:44;;;;;;;3.80;1.63;;;;;;;;;;6266395;28;20520;-50
2021/10/11 12:42:07;;;;;;;1.92;0.90;;;;;;;;;;6260367;28;20200;-50
2021/10/11 12:45:27;;;;;;;5.97;1.63;;;;;;;;;;6263618;28;20231;-49
2021/10/11 12:48:50;;;;;;;3.15;1.10;;;;;;;;;;6266582;28;20227;-47
2021/10/11 12:52:11;;;;;;;3.38;1.45;;;;;;;;;;6266129;28;20514;-50
2021/10/11 12:55:32;;;;;;;6.82;1.40;;;;;;;;;;6264291;28;20219;-49
2021/10/11 12:58:56;;;;;;;5.05;1.42;;;;;;;;;;6266750;28;20228;-50
2021/10/11 13:02:17;;;;;;;7.80;1.48;;;;;;;;;;6272731;28;20204;-48
2021/10/11 13:05:38;;;;;;;3.50;1.67;;;;;;;;;;6265848;28;20228;-50
2021/10/11 13:09:01;;;;;;;5.03;1.98;;;;;;;;;;6266348;28;20229;-46
2021/10/11 13:12:21;;;;;;;10.70;6.38;;;;;;;;;;6270405;28;20904;-48
2021/10/11 13:15:42;;;;;;;5.95;1.88;;;;;;;;;;6262179;28;20231;-53
2021/10/11 13:19:02;;;;;;;3.63;1.98;;;;;;;;;;6261635;28;20235;-46
2021/10/11 13:22:23;;;;;;;10.93;2.65;;;;;;;;;;6264069;28;20204;-49
2021/10/11 13:25:45;;;;;;;7.53;1.85;;;;;;;;;;6261475;28;20491;-45
2021/10/11 13:29:18;;;;;;;3.63;1.60;;;;;;;;;;6267188;28;20228;-50
2021/10/11 13:40:39;;;;;;;4.25;2.13;;;;;;;;;;6264224;28;20235;-47
2021/10/11 14:28:07;;;;;;;7.05;1.77;;;;;;;;;;6224567;28;20193;-48
2021/10/11 14:31:30;;;;;;;8.10;1.98;;;;;;;;;;6230627;28;20574;-52
2021/10/11 15:58:31;;;;;;;3.43;1.37;;;;;;;;;;6233374;28;20212;-51
2021/10/11 16:02:03;;;;;;;6.60;2.40;;;;;;;;;;6231528;28;20295;-53
2021/10/11 16:05:23;;;;;;;4.30;1.70;;;;;;;;;;6234806;28;20617;-54
2021/10/11 16:08:45;;;;;;;3.03;1.40;;;;;;;;;;6230989;28;20261;-53
2021/10/11 16:12:06;;;;;;;7.00;2.33;;;;;;;;;;6228516;28;20213;-53
2021/10/11 16:15:27;;;;;;;5.00;2.00;;;;;;;;;;6233782;28;20228;-54
2021/10/11 16:18:47;;;;;;;8.77;3.13;;;;;;;;;;6238908;28;20528;-55
2021/10/11 16:22:08;;;;;;;7.57;3.00;;;;;;;;;;6236988;28;20197;-52
2021/10/11 16:25:30;;;;;;;9.63;2.83;;;;;;;;;;6232716;28;20232;-52
2021/10/11 16:28:50;;;;;;;7.07;2.90;;;;;;;;;;6235286;28;20831;-49
2021/10/11 16:32:11;;;;;;;8.80;2.33;;;;;;;;;;6232729;28;20541;-51
2021/10/11 16:35:31;;;;;;;4.57;2.53;;;;;;;;;;6241241;28;20320;-53
2021/10/11 16:38:51;;;;;;;12.60;3.33;;;;;;;;;;6237923;28;20224;-53
2021/10/11 16:42:14;;;;;;;7.00;2.50;;;;;;;;;;6239197;28;20501;-49
2021/10/11 16:45:35;;;;;;;5.23;2.10;;;;;;;;;;6234438;28;20630;-54
2021/10/11 16:48:55;;;;;;;7.10;2.93;;;;;;;;;;6237041;28;20260;-53
2021/10/11 16:52:16;;;;;;;7.37;2.97;;;;;;;;;;6235118;28;20228;-52
2021/10/11 16:55:36;;;;;;;9.80;3.53;;;;;;;;;;6235984;28;20229;-55
2021/10/11 16:58:59;;;;;;;9.53;3.03;;;;;;;;;;6233797;28;21162;-53
2021/10/11 17:02:19;;;;;;;11.73;3.40;;;;;;;;;;6232311;28;20193;-49
2021/10/11 17:05:40;;;;;;;9.00;3.40;;;;;;;;;;6236506;28;20260;-50
2021/10/11 17:09:01;;;;;;;10.20;5.17;;;;;;;;;;6231439;28;20295;-53
2021/10/11 17:12:21;;;;;;;12.87;3.80;;;;;;;;;;6233430;28;20212;-54
2021/10/11 17:15:43;;;;;;;10.97;3.20;;;;;;;;;;6236399;28;20602;-51
2021/10/11 17:19:06;;;;;;;11.00;3.57;;;;;;;;;;6239910;28;20225;-53
2021/10/11 17:22:26;;;;;;;13.63;4.20;;;;;;;;;;6239995;28;20205;-51
2021/10/11 17:25:47;;;;;;;11.53;3.77;;;;;;;;;;6238245;28;20307;-53
2021/10/11 17:29:09;;;;;;;9.80;3.40;;;;;;;;;;6232024;28;20240;-53
2021/10/11 17:32:31;;;;;;;9.07;3.43;;;;;;;;;;6235313;28;20285;-51
2021/10/11 17:35:51;;;;;;;8.77;2.90;;;;;;;;;;6241773;28;20250;-55
2021/10/11 17:39:12;;;;;;;8.43;3.57;;;;;;;;;;6227905;28;20240;-54
2021/10/11 17:42:32;;;;;;;12.20;3.90;;;;;;;;;;6235520;28;21925;-48
2021/10/11 17:45:53;;;;;;;12.50;4.73;;;;;;;;;;6238046;28;20220;-53
2021/10/11 17:49:14;;;;;;;14.43;4.40;;;;;;;;;;6231598;28;20347;-54
2021/10/11 17:52:35;;;;;;;8.93;3.10;;;;;;;;;;6233599;28;20233;-55
2021/10/11 17:55:56;;;;;;;10.33;3.63;;;;;;;;;;6234346;28;20225;-52
2021/10/11 17:59:16;;;;;;;14.53;4.63;;;;;;;;;;6231782;28;20229;-50
2021/10/11 18:02:37;;;;;;;11.37;3.93;;;;;;;;;;6226726;28;20530;-53
2021/10/11 18:05:59;;;;;;;8.93;3.53;;;;;;;;;;6224566;28;20668;-51
2021/10/11 18:09:20;;;;;;;8.93;3.67;;;;;;;;;;6229460;28;20445;-54
2021/10/11 18:12:41;;;;;;;8.57;3.93;;;;;;;;;;6237576;28;20323;-54
2021/10/11 18:16:02;;;;;;;9.53;3.30;;;;;;;;;;6237972;28;20252;-53
2021/10/11 18:19:22;;;;;;;15.80;4.67;;;;;;;;;;6235938;28;20233;-55
2021/10/11 18:22:44;;;;;;;13.53;3.63;;;;;;;;;;6236014;28;20667;-51
2021/10/11 18:26:04;;;;;;;12.83;3.73;;;;;;;;;;6235123;28;20216;-55
2021/10/11 18:29:25;;;;;;;9.77;3.70;;;;;;;;;;6237533;28;20232;-51
2021/10/11 18:32:46;;;;;;;11.23;4.10;;;;;;;;;;6228140;28;20224;-49
2021/10/11 18:36:07;;;;;;;9.50;3.43;;;;;;;;;;6233836;28;20232;-53
2021/10/11 18:39:29;;;;;;;8.23;3.67;;;;;;;;;;6238472;28;20616;-54
2021/10/11 18:42:49;;;;;;;9.97;3.07;;;;;;;;;;6239784;28;20237;-53
2021/10/11 18:46:09;;;;;;;10.17;3.97;;;;;;;;;;6233329;28;20629;-52
2021/10/11 18:49:30;;;;;;;14.63;5.30;;;;;;;;;;6230836;28;20224;-52
2021/10/11 18:52:50;;;;;;;9.80;4.23;;;;;;;;;;6231033;28;20299;-53
2021/10/11 18:56:12;;;;;;;11.63;3.60;;;;;;;;;;6235557;28;20226;-52
2021/10/11 18:59:33;;;;;;;12.40;4.80;;;;;;;;;;6240270;28;20224;-51
2021/10/11 19:02:54;;;;;;;13.80;4.10;;;;;;;;;;6235594;28;20300;-51
2021/10/11 19:06:14;;;;;;;8.47;3.10;;;;;;;;;;6238075;28;20232;-51
2021/10/11 19:09:35;;;;;;;11.33;3.43;;;;;;;;;;6234718;28;20237;-53
2021/10/11 19:12:59;;;;;;;6.60;3.00;;;;;;;;;;6232132;28;20240;-53
2021/10/11 19:16:19;;;;;;;6.77;2.87;;;;;;;;;;6233795;28;20228;-55
2021/10/11 19:19:40;;;;;;;8.43;2.63;;;;;;;;;;6230335;28;20233;-51
2021/10/11 19:23:00;;;;;;;7.10;3.13;;;;;;;;;;6230993;28;20224;-53
2021/10/11 19:26:21;;;;;;;9.07;2.77;;;;;;;;;;6233041;28;20730;-53
2021/10/11 19:29:43;;;;;;;10.67;4.47;;;;;;;;;;6235715;28;20224;-54
2021/10/11 19:33:05;;;;;;;8.50;3.20;;;;;;;;;;6225582;28;20194;-52
2021/10/11 19:36:25;;;;;;;4.37;2.73;;;;;;;;;;6236836;28;20267;-53
2021/10/11 19:39:46;;;;;;;11.53;3.47;;;;;;;;;;6242909;28;20336;-51
2021/10/11 19:43:07;;;;;;;11.70;3.93;;;;;;;;;;6233706;28;20189;-54
2021/10/11 19:46:29;;;;;;;7.53;3.83;;;;;;;;;;6235030;28;20641;-51
2021/10/11 19:49:51;;;;;;;11.23;4.00;;;;;;;;;;6237973;28;20513;-55
2021/10/11 19:53:12;;;;;;;8.23;2.73;;;;;;;;;;6234453;28;20789;-54
2021/10/11 19:56:32;;;;;;;4.90;2.40;;;;;;;;;;6240062;28;20197;-50
2021/10/11 19:59:53;;;;;;;13.87;4.13;;;;;;;;;;6232095;28;20259;-55
2021/10/11 20:03:15;;;;;;;8.93;3.37;;;;;;;;;;6238142;28;20205;-54
2021/10/11 20:06:35;;;;;;;11.33;4.93;;;;;;;;;;6235096;28;20484;-53
2021/10/11 20:09:56;;;;;;;7.47;2.47;;;;;;;;;;6243388;28;20225;-52
2021/10/11 20:13:16;;;;;;;7.27;2.87;;;;;;;;;;6217833;28;20508;-52
2021/10/11 20:16:37;;;;;;;15.57;3.50;;;;;;;;;;6234387;28;20224;-54
2021/10/11 20:19:59;;;;;;;11.37;3.23;;;;;;;;;;6238464;28;20256;-51
2021/10/11 20:23:19;;;;;;;9.87;3.37;;;;;;;;;;6236833;28;20237;-53
2021/10/11 20:26:40;;;;;;;11.67;3.60;;;;;;;;;;6235456;28;20232;-50
2021/10/11 20:30:00;;;;;;;12.67;3.90;;;;;;;;;;6232921;28;20232;-56
2021/10/11 20:33:21;;;;;;;8.73;2.70;;;;;;;;;;6231618;28;20232;-52
2021/10/11 20:36:42;;;;;;;5.50;3.17;;;;;;;;;;6235815;28;20855;-51
2021/10/11 20:40:03;;;;;;;12.53;4.00;;;;;;;;;;6237891;28;20657;-52
2021/10/11 20:43:25;;;;;;;9.37;2.73;;;;;;;;;;6232591;28;20573;-53
2021/10/11 20:46:45;;;;;;;8.67;2.93;;;;;;;;;;6235929;28;20216;-51
2021/10/11 20:50:06;;;;;;;6.77;2.83;;;;;;;;;;6230807;28;20229;-53
2021/10/11 20:53:28;;;;;;;7.53;2.13;;;;;;;;;;6228772;28;20232;-53
2021/10/11 20:56:48;;;;;;;5.10;2.83;;;;;;;;;;6236633;28;20204;-54
2021/10/11 21:00:10;;;;;;;9.80;3.07;;;;;;;;;;6232954;28;20495;-55
2021/10/11 21:03:30;;;;;;;7.17;3.00;;;;;;;;;;6229163;28;20229;-53
2021/10/11 21:06:52;;;;;;;5.70;2.13;;;;;;;;;;6230156;28;20198;-52
2021/10/11 21:10:14;;;;;;;7.87;2.50;;;;;;;;;;6228721;28;20228;-55
2021/10/11 21:13:34;;;;;;;7.37;2.97;;;;;;;;;;6231446;28;20247;-52
2021/10/11 21:16:55;;;;;;;5.37;2.27;;;;;;;;;;6226421;28;20244;-50
2021/10/11 21:20:15;;;;;;;7.77;2.70;;;;;;;;;;6231278;28;20224;-53
2021/10/11 21:23:36;;;;;;;7.17;2.60;;;;;;;;;;6227536;28;20228;-55
2021/10/11 21:26:58;;;;;;;5.97;2.87;;;;;;;;;;6231443;28;20270;-54
2021/10/11 21:30:19;;;;;;;5.43;2.43;;;;;;;;;;6234096;28;20232;-49
2021/10/11 21:33:39;;;;;;;5.47;2.27;;;;;;;;;;6229211;28;20237;-49
2021/10/11 21:37:00;;;;;;;5.33;2.33;;;;;;;;;;6237817;28;20201;-54
2021/10/11 21:40:21;;;;;;;4.00;1.77;;;;;;;;;;6227388;28;20891;-53
2021/10/11 21:43:43;;;;;;;8.37;2.87;;;;;;;;;;6236614;28;20625;-52
2021/10/11 21:47:03;;;;;;;10.80;2.77;;;;;;;;;;6236930;28;20287;-52
2021/10/11 21:50:24;;;;;;;7.23;2.40;;;;;;;;;;6231374;28;20233;-52
2021/10/11 21:53:44;;;;;;;3.27;1.90;;;;;;;;;;6228863;28;20320;-55
2021/10/11 21:57:06;;;;;;;6.37;2.57;;;;;;;;;;6230376;28;20484;-55
2021/10/11 22:00:44;;;;;;;4.90;2.50;;;;;;;;;;6226090;28;20593;-54
2021/10/11 22:04:06;;;;;;;5.80;2.30;;;;;;;;;;6220712;28;20795;-52
2021/10/11 22:07:26;;;;;;;12.00;3.23;;;;;;;;;;6222466;28;20206;-53